sensor_id;sensor_type;location;lat;lon;timestamp;pressure;altitude;pressure_sealevel;temperature
59339;BMP280;45117;50.960;5.500;2023-07-13T00:00:52;100628.25;;;15.80
59339;BMP280;45117;50.960;5.500;2023-07-13T00:03:29;100602.59;;;15.72
59339;BMP280;45117;50.960;5.500;2023-07-13T00:06:00;100566.03;;;15.42
59339;BMP280;45117;50.960;5.500;2023-07-13T00:08:36;100597.31;;;15.55
59339;BMP280;45117;50.960;5.500;2023-07-13T00:11:13;100533.81;;;15.09
59339;BMP280;45117;50.960;5.500;2023-07-13T00:13:42;100580.19;;;15.46
59339;BMP280;45117;50.960;5.500;2023-07-13T00:16:18;100588.44;;;15.42
59339;BMP280;45117;50.960;5.500;2023-07-13T00:18:50;100539.09;;;15.13
59339;BMP280;45117;50.960;5.500;2023-07-13T00:21:18;100623.59;;;15.68
59339;BMP280;45117;50.960;5.500;2023-07-13T00:23:54;100640.16;;;15.82
59339;BMP280;45117;50.960;5.500;2023-07-13T00:26:24;100548.31;;;15.15
59339;BMP280;45117;50.960;5.500;2023-07-13T00:28:51;100603.91;;;15.54
59339;BMP280;45117;50.960;5.500;2023-07-13T00:31:24;100543.53;;;15.07
59339;BMP280;45117;50.960;5.500;2023-07-13T00:33:54;100616.69;;;15.54
59339;BMP280;45117;50.960;5.500;2023-07-13T00:36:21;100594.28;;;15.28
59339;BMP280;45117;50.960;5.500;2023-07-13T00:38:52;100612.22;;;15.34
59339;BMP280;45117;50.960;5.500;2023-07-13T00:41:25;100600.09;;;15.14
59339;BMP280;45117;50.960;5.500;2023-07-13T00:43:54;100592.84;;;15.11
59339;BMP280;45117;50.960;5.500;2023-07-13T00:46:26;100599.91;;;15.21
59339;BMP280;45117;50.960;5.500;2023-07-13T00:49:02;100604.13;;;15.22
59339;BMP280;45117;50.960;5.500;2023-07-13T00:51:43;100586.44;;;15.04
59339;BMP280;45117;50.960;5.500;2023-07-13T00:54:13;100648.94;;;15.36
59339;BMP280;45117;50.960;5.500;2023-07-13T00:56:43;100615.16;;;15.15
59339;BMP280;45117;50.960;5.500;2023-07-13T00:59:11;100656.63;;;15.37
59339;BMP280;45117;50.960;5.500;2023-07-13T01:01:41;100612.75;;;15.04
59339;BMP280;45117;50.960;5.500;2023-07-13T01:04:09;100652.69;;;15.25
59339;BMP280;45117;50.960;5.500;2023-07-13T01:06:40;100648.47;;;15.24
59339;BMP280;45117;50.960;5.500;2023-07-13T01:09:09;100605.16;;;14.86
59339;BMP280;45117;50.960;5.500;2023-07-13T01:11:45;100644.38;;;15.20
59339;BMP280;45117;50.960;5.500;2023-07-13T01:14:16;100575.13;;;14.68
59339;BMP280;45117;50.960;5.500;2023-07-13T01:16:46;100647.03;;;15.07
59339;BMP280;45117;50.960;5.500;2023-07-13T01:19:33;100598.06;;;14.76
59339;BMP280;45117;50.960;5.500;2023-07-13T01:22:17;100645.63;;;15.02
59339;BMP280;45117;50.960;5.500;2023-07-13T01:24:46;100664.78;;;15.08
59339;BMP280;45117;50.960;5.500;2023-07-13T01:27:16;100651.59;;;14.97
59339;BMP280;45117;50.960;5.500;2023-07-13T01:29:52;100612.25;;;14.80
59339;BMP280;45117;50.960;5.500;2023-07-13T01:32:27;100625.00;;;14.80
59339;BMP280;45117;50.960;5.500;2023-07-13T01:34:54;100619.03;;;14.72
59339;BMP280;45117;50.960;5.500;2023-07-13T01:37:23;100643.19;;;14.79
59339;BMP280;45117;50.960;5.500;2023-07-13T01:39:50;100626.16;;;14.66
59339;BMP280;45117;50.960;5.500;2023-07-13T01:42:17;100648.59;;;14.79
59339;BMP280;45117;50.960;5.500;2023-07-13T01:44:44;100636.78;;;14.73
59339;BMP280;45117;50.960;5.500;2023-07-13T01:47:11;100634.59;;;14.68
59339;BMP280;45117;50.960;5.500;2023-07-13T01:49:37;100617.25;;;14.53
59339;BMP280;45117;50.960;5.500;2023-07-13T01:52:05;100654.34;;;14.81
59339;BMP280;45117;50.960;5.500;2023-07-13T01:54:33;100647.06;;;14.78
59339;BMP280;45117;50.960;5.500;2023-07-13T01:57:00;100645.72;;;14.70
59339;BMP280;45117;50.960;5.500;2023-07-13T01:59:27;100647.06;;;14.78
59339;BMP280;45117;50.960;5.500;2023-07-13T02:01:53;100633.94;;;14.64
59339;BMP280;45117;50.960;5.500;2023-07-13T02:04:20;100653.66;;;14.77
59339;BMP280;45117;50.960;5.500;2023-07-13T02:06:47;100611.28;;;14.45
59339;BMP280;45117;50.960;5.500;2023-07-13T02:09:14;100654.59;;;14.70
59339;BMP280;45117;50.960;5.500;2023-07-13T02:11:42;100636.63;;;14.64
59339;BMP280;45117;50.960;5.500;2023-07-13T02:14:09;100607.22;;;14.37
59339;BMP280;45117;50.960;5.500;2023-07-13T02:16:36;100630.84;;;14.49
59339;BMP280;45117;50.960;5.500;2023-07-13T02:19:03;100576.47;;;14.18
59339;BMP280;45117;50.960;5.500;2023-07-13T02:21:31;100645.78;;;14.54
59339;BMP280;45117;50.960;5.500;2023-07-13T02:23:58;100651.41;;;14.59
59339;BMP280;45117;50.960;5.500;2023-07-13T02:26:25;100621.75;;;14.43
59339;BMP280;45117;50.960;5.500;2023-07-13T02:28:55;100588.69;;;14.23
59339;BMP280;45117;50.960;5.500;2023-07-13T02:31:22;100650.69;;;14.71
59339;BMP280;45117;50.960;5.500;2023-07-13T02:33:49;100653.34;;;14.75
59339;BMP280;45117;50.960;5.500;2023-07-13T02:36:16;100600.75;;;14.34
59339;BMP280;45117;50.960;5.500;2023-07-13T02:38:44;100652.41;;;14.65
59339;BMP280;45117;50.960;5.500;2023-07-13T02:41:10;100646.13;;;14.56
59339;BMP280;45117;50.960;5.500;2023-07-13T02:43:38;100647.66;;;14.57
59339;BMP280;45117;50.960;5.500;2023-07-13T02:46:06;100637.75;;;14.50
59339;BMP280;45117;50.960;5.500;2023-07-13T02:48:33;100617.44;;;14.29
59339;BMP280;45117;50.960;5.500;2023-07-13T02:51:00;100618.56;;;14.32
59339;BMP280;45117;50.960;5.500;2023-07-13T02:53:27;100582.56;;;14.06
59339;BMP280;45117;50.960;5.500;2023-07-13T02:55:54;100646.81;;;14.43
59339;BMP280;45117;50.960;5.500;2023-07-13T02:58:20;100652.19;;;14.60
59339;BMP280;45117;50.960;5.500;2023-07-13T03:00:48;100662.56;;;14.61
59339;BMP280;45117;50.960;5.500;2023-07-13T03:03:17;100588.13;;;14.15
59339;BMP280;45117;50.960;5.500;2023-07-13T03:05:44;100624.38;;;14.30
59339;BMP280;45117;50.960;5.500;2023-07-13T03:08:16;100651.56;;;14.39
59339;BMP280;45117;50.960;5.500;2023-07-13T03:10:43;100662.16;;;14.47
59339;BMP280;45117;50.960;5.500;2023-07-13T03:13:10;100657.38;;;14.38
59339;BMP280;45117;50.960;5.500;2023-07-13T03:15:37;100636.72;;;14.15
59339;BMP280;45117;50.960;5.500;2023-07-13T03:18:04;100636.88;;;14.24
59339;BMP280;45117;50.960;5.500;2023-07-13T03:20:33;100621.25;;;14.16
59339;BMP280;45117;50.960;5.500;2023-07-13T03:23:00;100677.25;;;14.60
59339;BMP280;45117;50.960;5.500;2023-07-13T03:25:28;100674.66;;;14.57
59339;BMP280;45117;50.960;5.500;2023-07-13T03:27:54;100677.50;;;14.66
59339;BMP280;45117;50.960;5.500;2023-07-13T03:30:21;100693.19;;;14.71
59339;BMP280;45117;50.960;5.500;2023-07-13T03:32:48;100647.00;;;14.36
59339;BMP280;45117;50.960;5.500;2023-07-13T03:35:15;100655.31;;;14.42
59339;BMP280;45117;50.960;5.500;2023-07-13T03:37:43;100668.56;;;14.53
59339;BMP280;45117;50.960;5.500;2023-07-13T03:40:13;100654.03;;;14.47
59339;BMP280;45117;50.960;5.500;2023-07-13T03:42:39;100669.56;;;14.59
59339;BMP280;45117;50.960;5.500;2023-07-13T03:45:08;100650.59;;;14.46
59339;BMP280;45117;50.960;5.500;2023-07-13T03:47:34;100694.38;;;14.70
59339;BMP280;45117;50.960;5.500;2023-07-13T03:50:01;100663.31;;;14.62
59339;BMP280;45117;50.960;5.500;2023-07-13T03:52:28;100699.28;;;14.75
59339;BMP280;45117;50.960;5.500;2023-07-13T03:54:57;100668.81;;;14.58
59339;BMP280;45117;50.960;5.500;2023-07-13T03:57:23;100689.94;;;14.76
59339;BMP280;45117;50.960;5.500;2023-07-13T03:59:50;100705.94;;;14.87
59339;BMP280;45117;50.960;5.500;2023-07-13T04:02:18;100669.72;;;14.68
59339;BMP280;45117;50.960;5.500;2023-07-13T04:04:46;100655.00;;;14.56
59339;BMP280;45117;50.960;5.500;2023-07-13T04:07:12;100696.75;;;14.97
59339;BMP280;45117;50.960;5.500;2023-07-13T04:09:39;100681.25;;;14.85
59339;BMP280;45117;50.960;5.500;2023-07-13T04:12:08;100697.00;;;15.02
59339;BMP280;45117;50.960;5.500;2023-07-13T04:14:35;100713.34;;;15.12
59339;BMP280;45117;50.960;5.500;2023-07-13T04:17:10;100678.97;;;14.83
59339;BMP280;45117;50.960;5.500;2023-07-13T04:19:44;100707.63;;;15.10
59339;BMP280;45117;50.960;5.500;2023-07-13T04:22:11;100724.00;;;15.19
59339;BMP280;45117;50.960;5.500;2023-07-13T04:24:38;100718.59;;;15.19
59339;BMP280;45117;50.960;5.500;2023-07-13T04:27:05;100714.03;;;15.16
59339;BMP280;45117;50.960;5.500;2023-07-13T04:29:33;100658.47;;;14.86
59339;BMP280;45117;50.960;5.500;2023-07-13T04:32:00;100689.56;;;15.07
59339;BMP280;45117;50.960;5.500;2023-07-13T04:34:27;100673.22;;;14.97
59339;BMP280;45117;50.960;5.500;2023-07-13T04:36:54;100703.13;;;15.19
59339;BMP280;45117;50.960;5.500;2023-07-13T04:39:20;100692.69;;;15.18
59339;BMP280;45117;50.960;5.500;2023-07-13T04:41:47;100688.69;;;15.22
59339;BMP280;45117;50.960;5.500;2023-07-13T04:44:14;100731.19;;;15.51
59339;BMP280;45117;50.960;5.500;2023-07-13T04:46:42;100676.78;;;15.07
59339;BMP280;45117;50.960;5.500;2023-07-13T04:49:09;100706.16;;;15.34
59339;BMP280;45117;50.960;5.500;2023-07-13T04:51:36;100728.59;;;15.47
59339;BMP280;45117;50.960;5.500;2023-07-13T04:54:03;100738.16;;;15.65
59339;BMP280;45117;50.960;5.500;2023-07-13T04:56:30;100695.03;;;15.45
59339;BMP280;45117;50.960;5.500;2023-07-13T04:58:57;100746.72;;;15.76
59339;BMP280;45117;50.960;5.500;2023-07-13T05:01:23;100739.16;;;15.83
59339;BMP280;45117;50.960;5.500;2023-07-13T05:03:52;100732.22;;;15.82
59339;BMP280;45117;50.960;5.500;2023-07-13T05:06:21;100750.41;;;15.94
59339;BMP280;45117;50.960;5.500;2023-07-13T05:08:47;100757.13;;;16.03
59339;BMP280;45117;50.960;5.500;2023-07-13T05:11:17;100730.16;;;15.86
59339;BMP280;45117;50.960;5.500;2023-07-13T05:13:44;100760.34;;;15.98
59339;BMP280;45117;50.960;5.500;2023-07-13T05:16:11;100762.66;;;15.99
59339;BMP280;45117;50.960;5.500;2023-07-13T05:18:37;100756.78;;;16.01
59339;BMP280;45117;50.960;5.500;2023-07-13T05:21:07;100753.78;;;15.99
59339;BMP280;45117;50.960;5.500;2023-07-13T05:23:35;100758.00;;;16.00
59339;BMP280;45117;50.960;5.500;2023-07-13T05:26:02;100754.84;;;16.14
59339;BMP280;45117;50.960;5.500;2023-07-13T05:28:30;100765.25;;;16.15
59339;BMP280;45117;50.960;5.500;2023-07-13T05:30:58;100742.59;;;16.09
59339;BMP280;45117;50.960;5.500;2023-07-13T05:33:25;100753.97;;;16.17
59339;BMP280;45117;50.960;5.500;2023-07-13T05:35:52;100762.09;;;16.30
59339;BMP280;45117;50.960;5.500;2023-07-13T05:38:21;100734.34;;;16.13
59339;BMP280;45117;50.960;5.500;2023-07-13T05:40:48;100760.88;;;16.18
59339;BMP280;45117;50.960;5.500;2023-07-13T05:43:15;100748.44;;;16.20
59339;BMP280;45117;50.960;5.500;2023-07-13T05:45:41;100766.06;;;16.38
59339;BMP280;45117;50.960;5.500;2023-07-13T05:48:10;100764.88;;;16.39
59339;BMP280;45117;50.960;5.500;2023-07-13T05:50:37;100763.78;;;16.49
59339;BMP280;45117;50.960;5.500;2023-07-13T05:53:04;100696.13;;;16.11
59339;BMP280;45117;50.960;5.500;2023-07-13T05:55:32;100707.34;;;16.35
59339;BMP280;45117;50.960;5.500;2023-07-13T05:58:00;100735.13;;;16.48
59339;BMP280;45117;50.960;5.500;2023-07-13T06:00:36;100746.09;;;16.57
59339;BMP280;45117;50.960;5.500;2023-07-13T06:03:02;100764.09;;;16.85
59339;BMP280;45117;50.960;5.500;2023-07-13T06:05:29;100782.41;;;16.94
59339;BMP280;45117;50.960;5.500;2023-07-13T06:07:56;100779.41;;;16.79
59339;BMP280;45117;50.960;5.500;2023-07-13T06:10:23;100754.84;;;16.74
59339;BMP280;45117;50.960;5.500;2023-07-13T06:12:51;100763.31;;;16.63
59339;BMP280;45117;50.960;5.500;2023-07-13T06:15:18;100764.59;;;16.71
59339;BMP280;45117;50.960;5.500;2023-07-13T06:17:44;100722.28;;;16.39
59339;BMP280;45117;50.960;5.500;2023-07-13T06:20:12;100788.28;;;16.93
59339;BMP280;45117;50.960;5.500;2023-07-13T06:22:38;100771.41;;;16.76
59339;BMP280;45117;50.960;5.500;2023-07-13T06:25:06;100805.91;;;17.10
59339;BMP280;45117;50.960;5.500;2023-07-13T06:27:33;100787.84;;;17.16
59339;BMP280;45117;50.960;5.500;2023-07-13T06:30:02;100806.63;;;17.32
59339;BMP280;45117;50.960;5.500;2023-07-13T06:32:30;100805.41;;;17.24
59339;BMP280;45117;50.960;5.500;2023-07-13T06:34:56;100803.81;;;17.14
59339;BMP280;45117;50.960;5.500;2023-07-13T06:37:23;100787.72;;;17.20
59339;BMP280;45117;50.960;5.500;2023-07-13T06:39:50;100769.31;;;17.14
59339;BMP280;45117;50.960;5.500;2023-07-13T06:42:17;100811.78;;;17.61
59339;BMP280;45117;50.960;5.500;2023-07-13T06:44:45;100790.56;;;17.69
59339;BMP280;45117;50.960;5.500;2023-07-13T06:47:13;100774.00;;;17.76
59339;BMP280;45117;50.960;5.500;2023-07-13T06:49:40;100808.72;;;17.81
59339;BMP280;45117;50.960;5.500;2023-07-13T06:52:07;100800.03;;;17.95
59339;BMP280;45117;50.960;5.500;2023-07-13T06:54:34;100805.34;;;17.99
59339;BMP280;45117;50.960;5.500;2023-07-13T06:57:04;100795.81;;;17.94
59339;BMP280;45117;50.960;5.500;2023-07-13T06:59:31;100760.69;;;17.69
59339;BMP280;45117;50.960;5.500;2023-07-13T07:01:57;100813.16;;;17.88
59339;BMP280;45117;50.960;5.500;2023-07-13T07:04:26;100785.16;;;17.69
59339;BMP280;45117;50.960;5.500;2023-07-13T07:06:53;100826.22;;;18.11
59339;BMP280;45117;50.960;5.500;2023-07-13T07:09:19;100816.91;;;18.21
59339;BMP280;45117;50.960;5.500;2023-07-13T07:11:46;100820.00;;;18.51
59339;BMP280;45117;50.960;5.500;2023-07-13T07:14:13;100816.38;;;18.63
59339;BMP280;45117;50.960;5.500;2023-07-13T07:16:39;100763.69;;;18.11
59339;BMP280;45117;50.960;5.500;2023-07-13T07:19:06;100818.91;;;18.39
59339;BMP280;45117;50.960;5.500;2023-07-13T07:21:34;100767.59;;;18.01
59339;BMP280;45117;50.960;5.500;2023-07-13T07:24:01;100793.66;;;18.29
59339;BMP280;45117;50.960;5.500;2023-07-13T07:26:30;100787.16;;;18.18
59339;BMP280;45117;50.960;5.500;2023-07-13T07:28:56;100766.19;;;18.36
59339;BMP280;45117;50.960;5.500;2023-07-13T07:31:23;100827.88;;;18.76
59339;BMP280;45117;50.960;5.500;2023-07-13T07:33:50;100818.94;;;18.76
59339;BMP280;45117;50.960;5.500;2023-07-13T07:36:17;100801.09;;;18.56
59339;BMP280;45117;50.960;5.500;2023-07-13T07:39:25;100834.97;;;18.92
59339;BMP280;45117;50.960;5.500;2023-07-13T07:45:43;100790.25;;;18.84
59339;BMP280;45117;50.960;5.500;2023-07-13T07:48:11;100841.63;;;19.09
59339;BMP280;45117;50.960;5.500;2023-07-13T07:50:37;100846.28;;;19.27
59339;BMP280;45117;50.960;5.500;2023-07-13T07:53:05;100795.34;;;19.00
59339;BMP280;45117;50.960;5.500;2023-07-13T07:55:34;100850.31;;;19.50
59339;BMP280;45117;50.960;5.500;2023-07-13T07:58:04;100839.00;;;19.42
59339;BMP280;45117;50.960;5.500;2023-07-13T08:00:31;100837.44;;;20.02
59339;BMP280;45117;50.960;5.500;2023-07-13T08:03:01;100812.31;;;19.97
59339;BMP280;45117;50.960;5.500;2023-07-13T08:05:28;100795.84;;;19.83
59339;BMP280;45117;50.960;5.500;2023-07-13T08:07:55;100805.59;;;20.08
59339;BMP280;45117;50.960;5.500;2023-07-13T08:10:22;100806.88;;;20.21
59339;BMP280;45117;50.960;5.500;2023-07-13T08:12:50;100830.34;;;20.67
59339;BMP280;45117;50.960;5.500;2023-07-13T08:15:17;100798.53;;;20.63
59339;BMP280;45117;50.960;5.500;2023-07-13T08:17:46;100844.97;;;21.22
59339;BMP280;45117;50.960;5.500;2023-07-13T08:20:13;100842.16;;;20.87
59339;BMP280;45117;50.960;5.500;2023-07-13T08:22:40;100787.38;;;21.20
59339;BMP280;45117;50.960;5.500;2023-07-13T08:25:07;100817.69;;;20.93
59339;BMP280;45117;50.960;5.500;2023-07-13T08:27:34;100832.09;;;21.38
59339;BMP280;45117;50.960;5.500;2023-07-13T08:30:03;100811.19;;;21.20
59339;BMP280;45117;50.960;5.500;2023-07-13T08:32:31;100841.25;;;21.84
59339;BMP280;45117;50.960;5.500;2023-07-13T08:34:58;100846.75;;;22.05
59339;BMP280;45117;50.960;5.500;2023-07-13T08:37:29;100792.53;;;21.48
59339;BMP280;45117;50.960;5.500;2023-07-13T08:39:56;100845.03;;;21.72
59339;BMP280;45117;50.960;5.500;2023-07-13T08:42:32;100849.97;;;22.03
59339;BMP280;45117;50.960;5.500;2023-07-13T08:45:07;100850.69;;;21.83
59339;BMP280;45117;50.960;5.500;2023-07-13T08:47:40;100841.91;;;21.79
59339;BMP280;45117;50.960;5.500;2023-07-13T08:50:16;100859.28;;;22.11
59339;BMP280;45117;50.960;5.500;2023-07-13T08:52:44;100821.53;;;22.15
59339;BMP280;45117;50.960;5.500;2023-07-13T08:55:13;100850.75;;;22.24
59339;BMP280;45117;50.960;5.500;2023-07-13T08:57:43;100858.53;;;22.11
59339;BMP280;45117;50.960;5.500;2023-07-13T09:00:16;100844.06;;;22.10
59339;BMP280;45117;50.960;5.500;2023-07-13T09:02:51;100811.78;;;21.74
59339;BMP280;45117;50.960;5.500;2023-07-13T09:05:26;100852.50;;;22.27
59339;BMP280;45117;50.960;5.500;2023-07-13T09:08:09;100843.72;;;23.89
59339;BMP280;45117;50.960;5.500;2023-07-13T09:10:43;100822.94;;;23.72
59339;BMP280;45117;50.960;5.500;2023-07-13T09:13:24;100844.59;;;23.01
59339;BMP280;45117;50.960;5.500;2023-07-13T09:16:03;100819.56;;;23.51
59339;BMP280;45117;50.960;5.500;2023-07-13T09:18:33;100838.91;;;23.05
59339;BMP280;45117;50.960;5.500;2023-07-13T09:21:03;100807.53;;;23.85
59339;BMP280;45117;50.960;5.500;2023-07-13T09:23:31;100827.47;;;23.38
59339;BMP280;45117;50.960;5.500;2023-07-13T09:26:11;100847.00;;;23.56
59339;BMP280;45117;50.960;5.500;2023-07-13T09:28:43;100809.72;;;22.70
59339;BMP280;45117;50.960;5.500;2023-07-13T09:31:16;100864.44;;;24.61
59339;BMP280;45117;50.960;5.500;2023-07-13T09:33:43;100839.94;;;25.52
59339;BMP280;45117;50.960;5.500;2023-07-13T09:36:19;100827.25;;;24.77
59339;BMP280;45117;50.960;5.500;2023-07-13T09:39:02;100781.50;;;24.35
59339;BMP280;45117;50.960;5.500;2023-07-13T09:41:37;100836.66;;;23.77
59339;BMP280;45117;50.960;5.500;2023-07-13T09:44:08;100809.31;;;23.88
59339;BMP280;45117;50.960;5.500;2023-07-13T09:46:39;100809.75;;;23.76
59339;BMP280;45117;50.960;5.500;2023-07-13T09:49:09;100854.25;;;24.02
59339;BMP280;45117;50.960;5.500;2023-07-13T09:51:36;100830.88;;;23.70
59339;BMP280;45117;50.960;5.500;2023-07-13T09:54:05;100835.16;;;23.34
59339;BMP280;45117;50.960;5.500;2023-07-13T09:56:32;100849.56;;;23.03
59339;BMP280;45117;50.960;5.500;2023-07-13T09:59:03;100855.56;;;23.01
59339;BMP280;45117;50.960;5.500;2023-07-13T10:01:36;100789.50;;;22.93
59339;BMP280;45117;50.960;5.500;2023-07-13T10:07:27;100798.00;;;22.70
59339;BMP280;45117;50.960;5.500;2023-07-13T10:09:58;100867.38;;;23.13
59339;BMP280;45117;50.960;5.500;2023-07-13T10:12:35;100800.63;;;24.01
59339;BMP280;45117;50.960;5.500;2023-07-13T10:15:18;100846.97;;;24.70
59339;BMP280;45117;50.960;5.500;2023-07-13T10:18:24;100804.00;;;25.33
59339;BMP280;45117;50.960;5.500;2023-07-13T10:20:57;100890.31;;;26.93
59339;BMP280;45117;50.960;5.500;2023-07-13T10:23:34;100868.88;;;27.34
59339;BMP280;45117;50.960;5.500;2023-07-13T10:26:03;100870.22;;;25.47
59339;BMP280;45117;50.960;5.500;2023-07-13T10:28:51;100805.75;;;24.70
59339;BMP280;45117;50.960;5.500;2023-07-13T10:31:39;100833.47;;;25.39
59339;BMP280;45117;50.960;5.500;2023-07-13T10:34:09;100830.31;;;26.33
59339;BMP280;45117;50.960;5.500;2023-07-13T10:36:43;100868.03;;;26.85
59339;BMP280;45117;50.960;5.500;2023-07-13T10:39:17;100879.31;;;26.52
59339;BMP280;45117;50.960;5.500;2023-07-13T10:41:53;100834.88;;;26.31
59339;BMP280;45117;50.960;5.500;2023-07-13T10:44:25;100799.94;;;25.46
59339;BMP280;45117;50.960;5.500;2023-07-13T10:46:57;100793.72;;;26.74
59339;BMP280;45117;50.960;5.500;2023-07-13T10:49:26;100844.81;;;25.87
59339;BMP280;45117;50.960;5.500;2023-07-13T10:51:57;100848.75;;;25.17
59339;BMP280;45117;50.960;5.500;2023-07-13T10:54:30;100829.69;;;25.53
59339;BMP280;45117;50.960;5.500;2023-07-13T10:57:21;100867.75;;;26.18
59339;BMP280;45117;50.960;5.500;2023-07-13T11:00:08;100821.88;;;26.26
59339;BMP280;45117;50.960;5.500;2023-07-13T11:02:38;100796.34;;;25.73
59339;BMP280;45117;50.960;5.500;2023-07-13T11:05:25;100821.97;;;24.56
59339;BMP280;45117;50.960;5.500;2023-07-13T11:08:03;100822.25;;;24.81
59339;BMP280;45117;50.960;5.500;2023-07-13T11:10:52;100879.63;;;24.40
59339;BMP280;45117;50.960;5.500;2023-07-13T11:13:56;100881.66;;;24.56
59339;BMP280;45117;50.960;5.500;2023-07-13T11:16:44;100840.44;;;24.34
59339;BMP280;45117;50.960;5.500;2023-07-13T11:19:41;100880.19;;;25.50
59339;BMP280;45117;50.960;5.500;2023-07-13T11:22:13;100854.00;;;24.87
59339;BMP280;45117;50.960;5.500;2023-07-13T11:24:52;100879.97;;;25.48
59339;BMP280;45117;50.960;5.500;2023-07-13T11:27:35;100879.41;;;26.29
59339;BMP280;45117;50.960;5.500;2023-07-13T11:30:23;100842.91;;;25.65
59339;BMP280;45117;50.960;5.500;2023-07-13T11:33:27;100789.69;;;26.10
59339;BMP280;45117;50.960;5.500;2023-07-13T11:36:15;100814.53;;;25.87
59339;BMP280;45117;50.960;5.500;2023-07-13T11:38:43;100837.84;;;25.81
59339;BMP280;45117;50.960;5.500;2023-07-13T11:41:15;100797.63;;;25.66
59339;BMP280;45117;50.960;5.500;2023-07-13T11:43:45;100811.00;;;25.34
59339;BMP280;45117;50.960;5.500;2023-07-13T11:46:20;100769.53;;;24.99
59339;BMP280;45117;50.960;5.500;2023-07-13T11:48:48;100811.53;;;24.83
59339;BMP280;45117;50.960;5.500;2023-07-13T11:51:21;100802.44;;;26.48
59339;BMP280;45117;50.960;5.500;2023-07-13T11:53:51;100798.50;;;26.38
59339;BMP280;45117;50.960;5.500;2023-07-13T11:56:25;100826.44;;;26.89
59339;BMP280;45117;50.960;5.500;2023-07-13T11:58:57;100819.06;;;27.21
59339;BMP280;45117;50.960;5.500;2023-07-13T12:01:28;100876.72;;;27.25
59339;BMP280;45117;50.960;5.500;2023-07-13T12:03:58;100825.28;;;27.70
59339;BMP280;45117;50.960;5.500;2023-07-13T12:06:28;100874.25;;;28.07
59339;BMP280;45117;50.960;5.500;2023-07-13T12:08:56;100850.78;;;27.33
59339;BMP280;45117;50.960;5.500;2023-07-13T12:11:24;100868.59;;;27.08
59339;BMP280;45117;50.960;5.500;2023-07-13T12:13:51;100859.31;;;27.60
59339;BMP280;45117;50.960;5.500;2023-07-13T12:16:25;100857.03;;;27.82
59339;BMP280;45117;50.960;5.500;2023-07-13T12:18:53;100820.16;;;26.58
59339;BMP280;45117;50.960;5.500;2023-07-13T12:21:27;100875.25;;;26.94
59339;BMP280;45117;50.960;5.500;2023-07-13T12:23:55;100865.22;;;27.69
59339;BMP280;45117;50.960;5.500;2023-07-13T12:26:22;100838.94;;;27.63
59339;BMP280;45117;50.960;5.500;2023-07-13T12:28:52;100855.25;;;27.85
59339;BMP280;45117;50.960;5.500;2023-07-13T12:31:30;100848.53;;;26.48
59339;BMP280;45117;50.960;5.500;2023-07-13T12:33:59;100814.06;;;26.95
59339;BMP280;45117;50.960;5.500;2023-07-13T12:36:30;100832.75;;;27.08
59339;BMP280;45117;50.960;5.500;2023-07-13T12:39:11;100823.47;;;26.46
59339;BMP280;45117;50.960;5.500;2023-07-13T12:41:39;100863.75;;;26.90
59339;BMP280;45117;50.960;5.500;2023-07-13T12:44:10;100828.72;;;26.85
59339;BMP280;45117;50.960;5.500;2023-07-13T12:46:39;100845.44;;;27.17
59339;BMP280;45117;50.960;5.500;2023-07-13T12:49:07;100841.03;;;27.08
59339;BMP280;45117;50.960;5.500;2023-07-13T12:51:34;100860.19;;;27.68
59339;BMP280;45117;50.960;5.500;2023-07-13T12:54:13;100854.00;;;26.89
59339;BMP280;45117;50.960;5.500;2023-07-13T12:56:41;100850.38;;;26.69
59339;BMP280;45117;50.960;5.500;2023-07-13T12:59:17;100855.63;;;27.03
59339;BMP280;45117;50.960;5.500;2023-07-13T13:01:46;100822.25;;;27.06
59339;BMP280;45117;50.960;5.500;2023-07-13T13:04:13;100850.16;;;27.22
59339;BMP280;45117;50.960;5.500;2023-07-13T13:06:40;100842.91;;;26.59
59339;BMP280;45117;50.960;5.500;2023-07-13T13:09:29;100845.25;;;26.85
59339;BMP280;45117;50.960;5.500;2023-07-13T13:11:56;100831.28;;;26.41
59339;BMP280;45117;50.960;5.500;2023-07-13T13:14:26;100865.06;;;27.13
59339;BMP280;45117;50.960;5.500;2023-07-13T13:16:57;100865.50;;;27.17
59339;BMP280;45117;50.960;5.500;2023-07-13T13:19:28;100869.56;;;27.40
59339;BMP280;45117;50.960;5.500;2023-07-13T13:22:07;100841.28;;;26.45
59339;BMP280;45117;50.960;5.500;2023-07-13T13:24:45;100790.81;;;25.84
59339;BMP280;45117;50.960;5.500;2023-07-13T13:27:16;100839.41;;;25.65
59339;BMP280;45117;50.960;5.500;2023-07-13T13:29:50;100879.41;;;25.77
59339;BMP280;45117;50.960;5.500;2023-07-13T13:32:20;100868.25;;;25.14
59339;BMP280;45117;50.960;5.500;2023-07-13T13:34:47;100829.00;;;24.69
59339;BMP280;45117;50.960;5.500;2023-07-13T13:37:18;100877.69;;;24.68
59339;BMP280;45117;50.960;5.500;2023-07-13T13:39:46;100886.44;;;24.66
59339;BMP280;45117;50.960;5.500;2023-07-13T13:42:15;100848.16;;;23.81
59339;BMP280;45117;50.960;5.500;2023-07-13T13:44:43;100842.09;;;23.29
59339;BMP280;45117;50.960;5.500;2023-07-13T13:47:24;100908.81;;;23.20
59339;BMP280;45117;50.960;5.500;2023-07-13T13:49:53;100854.81;;;22.34
59339;BMP280;45117;50.960;5.500;2023-07-13T13:52:23;100860.06;;;21.97
59339;BMP280;45117;50.960;5.500;2023-07-13T13:54:50;100854.53;;;21.42
59339;BMP280;45117;50.960;5.500;2023-07-13T13:57:21;100839.09;;;21.24
59339;BMP280;45117;50.960;5.500;2023-07-13T13:59:49;100931.78;;;21.86
59339;BMP280;45117;50.960;5.500;2023-07-13T14:02:44;100897.69;;;21.52
59339;BMP280;45117;50.960;5.500;2023-07-13T14:05:24;100896.88;;;21.08
59339;BMP280;45117;50.960;5.500;2023-07-13T14:07:54;100837.13;;;20.71
59339;BMP280;45117;50.960;5.500;2023-07-13T14:10:47;100854.22;;;20.57
59339;BMP280;45117;50.960;5.500;2023-07-13T14:14:31;100932.13;;;20.82
59339;BMP280;45117;50.960;5.500;2023-07-13T14:16:55;100898.75;;;20.63
59339;BMP280;45117;50.960;5.500;2023-07-13T14:19:24;100883.53;;;20.47
59339;BMP280;45117;50.960;5.500;2023-07-13T14:21:52;100890.59;;;20.30
59339;BMP280;45117;50.960;5.500;2023-07-13T14:24:19;100909.03;;;20.44